Time;durP1;ratioP1;P1;durP2;ratioP2;P2;SDS_P1;SDS_P2;PMS_P1;PMS_P2;Temp;Humidity;BMP_temperature;BMP_pressure;BME280_temperature;BME280_humidity;BME280_pressure;Samples;Min_cycle;Max_cycle;Signal;HPM_P1;HPM_P2
2023/04/10 00:01:04;;;;;;;33.45;18.70;;;2.90;99.90;;;;;;7540968;19;21008;-74
2023/04/10 00:03:36;;;;;;;33.90;17.88;;;3.00;99.90;;;;;;7575484;19;20094;-75
2023/04/10 00:06:09;;;;;;;38.50;19.73;;;2.80;99.90;;;;;;7558240;19;21610;-74
2023/04/10 00:08:41;;;;;;;33.38;18.52;;;2.80;99.90;;;;;;7581506;19;20278;-74
2023/04/10 00:11:13;;;;;;;34.05;17.85;;;2.70;99.90;;;;;;7591029;19;20025;-74
2023/04/10 00:13:45;;;;;;;31.33;16.52;;;2.70;99.90;;;;;;7578554;19;20109;-74
2023/04/10 00:16:19;;;;;;;29.40;15.93;;;2.60;99.90;;;;;;7577948;19;20930;-75
2023/04/10 00:18:51;;;;;;;31.37;17.27;;;2.80;99.90;;;;;;7582085;19;20019;-74
2023/04/10 00:21:23;;;;;;;30.80;17.45;;;2.80;99.90;;;;;;7577745;19;20287;-75
2023/04/10 00:23:55;;;;;;;27.65;15.85;;;2.70;99.90;;;;;;7581108;19;20014;-75
2023/04/10 00:26:28;;;;;;;30.38;16.25;;;2.70;99.90;;;;;;7558536;19;20014;-75
2023/04/10 00:29:00;;;;;;;30.42;15.70;;;2.60;99.90;;;;;;7593648;19;20115;-75
2023/04/10 00:31:33;;;;;;;29.17;16.75;;;2.60;99.90;;;;;;7582334;19;20082;-75
2023/04/10 00:34:05;;;;;;;29.25;15.63;;;2.50;99.90;;;;;;7584014;19;20484;-75
2023/04/10 00:36:38;;;;;;;32.80;16.52;;;2.30;99.90;;;;;;7572202;19;20052;-76
2023/04/10 00:39:11;;;;;;;31.23;16.95;;;2.30;99.90;;;;;;7580793;19;20033;-76
2023/04/10 00:41:44;;;;;;;33.85;17.88;;;2.20;99.90;;;;;;7576104;19;20633;-75
2023/04/10 00:44:16;;;;;;;31.98;16.75;;;2.20;99.90;;;;;;7584162;19;20018;-77
2023/04/10 00:46:48;;;;;;;28.30;15.77;;;2.20;99.90;;;;;;7584026;19;20014;-75
2023/04/10 00:49:21;;;;;;;28.95;15.60;;;2.40;99.90;;;;;;7593982;19;20027;-76
2023/04/10 00:51:53;;;;;;;26.48;15.13;;;2.40;99.90;;;;;;7582643;19;20534;-78
2023/04/10 00:54:30;;;;;;;27.52;15.07;;;2.30;99.90;;;;;;7543414;19;20502;-75
2023/04/10 00:57:03;;;;;;;29.45;16.27;;;2.30;99.90;;;;;;7545758;19;20134;-77
2023/04/10 00:59:36;;;;;;;29.40;15.15;;;2.30;99.90;;;;;;7569624;19;20020;-76
2023/04/10 01:02:11;;;;;;;29.23;14.85;;;2.20;99.90;;;;;;7572063;19;20370;-76
2023/04/10 01:04:44;;;;;;;29.55;15.02;;;2.20;99.90;;;;;;7592681;19;20014;-76
2023/04/10 01:07:37;;;;;;;30.00;14.80;;;2.10;99.90;;;;;;7582406;19;20532;-76
2023/04/10 01:10:28;;;;;;;28.10;15.18;;;2.10;99.90;;;;;;7581633;19;20454;-76
2023/04/10 01:13:26;;;;;;;29.13;14.82;;;2.00;99.90;;;;;;7578763;19;20512;-76
2023/04/10 01:16:31;;;;;;;29.85;16.13;;;2.10;99.90;;;;;;7556251;19;20010;-75
2023/04/10 01:19:23;;;;;;;24.98;13.30;;;1.90;99.90;;;;;;7573694;19;20130;-75
2023/04/10 01:21:57;;;;;;;23.80;13.70;;;2.00;99.90;;;;;;7575765;19;20025;-75
2023/04/10 01:24:54;;;;;;;24.70;13.70;;;2.10;99.90;;;;;;7580537;19;20101;-75
2023/04/10 01:27:35;;;;;;;24.15;13.48;;;2.00;99.90;;;;;;7562275;19;20035;-76
2023/04/10 01:30:12;;;;;;;29.40;15.02;;;2.00;99.90;;;;;;7580094;19;20123;-76
2023/04/10 01:32:45;;;;;;;25.67;15.20;;;2.00;99.90;;;;;;7582386;19;20044;-76
2023/04/10 01:35:18;;;;;;;26.10;13.77;;;1.90;99.90;;;;;;7591739;19;20052;-76
2023/04/10 01:37:52;;;;;;;26.03;14.43;;;1.90;99.90;;;;;;7577760;19;20019;-75
2023/04/10 01:40:26;;;;;;;25.45;13.95;;;1.90;99.90;;;;;;7542856;19;20287;-76
2023/04/10 01:43:01;;;;;;;23.38;12.73;;;1.80;99.90;;;;;;7563679;19;20025;-77
2023/04/10 01:45:46;;;;;;;25.35;14.10;;;1.80;99.90;;;;;;7564829;19;25414;-77
2023/04/10 01:48:20;;;;;;;23.60;13.48;;;1.70;99.90;;;;;;7561826;19;20017;-77
2023/04/10 01:50:54;;;;;;;23.42;13.10;;;1.70;99.90;;;;;;7553988;19;20026;-76
2023/04/10 01:53:27;;;;;;;24.13;14.15;;;1.60;99.90;;;;;;7593158;19;20010;-77
2023/04/10 01:56:01;;;;;;;23.95;13.15;;;1.60;99.90;;;;;;7590746;19;20019;-76
2023/04/10 01:58:38;;;;;;;26.05;14.15;;;1.60;99.90;;;;;;7595108;19;20049;-76
2023/04/10 02:01:16;;;;;;;25.83;13.70;;;1.60;99.90;;;;;;7585878;19;20023;-77
2023/04/10 02:03:56;;;;;;;24.52;13.27;;;1.50;99.90;;;;;;7608326;19;20053;-76
2023/04/10 02:06:51;;;;;;;23.50;12.07;;;1.40;99.90;;;;;;7606088;19;20019;-76
2023/04/10 02:09:35;;;;;;;24.73;13.63;;;1.40;99.90;;;;;;7592234;19;20019;-77
2023/04/10 02:12:14;;;;;;;;;;;1.40;99.90;;;;;;7590263;19;20047;-77
2023/04/10 02:14:48;;;;;;;23.10;12.15;;;1.40;99.90;;;;;;7589322;19;20577;-77
2023/04/10 02:17:27;;;;;;;24.95;13.00;;;1.40;99.90;;;;;;7597452;19;20015;-77
2023/04/10 02:20:09;;;;;;;22.85;12.93;;;1.30;99.90;;;;;;7596422;19;20025;-77
2023/04/10 02:22:43;;;;;;;20.95;11.65;;;1.40;99.90;;;;;;7600555;19;20111;-77
2023/04/10 02:25:15;;;;;;;23.35;12.82;;;1.40;99.90;;;;;;7597160;19;21766;-77
2023/04/10 02:27:47;;;;;;;23.23;12.75;;;1.40;99.90;;;;;;7575722;19;20022;-77
2023/04/10 02:30:20;;;;;;;23.05;13.05;;;1.30;99.90;;;;;;7570306;19;20018;-77
2023/04/10 02:32:54;;;;;;;25.00;13.60;;;1.40;99.90;;;;;;7587366;19;20023;-76
2023/04/10 02:35:28;;;;;;;28.90;13.97;;;1.30;99.90;;;;;;7579099;19;20029;-77
2023/04/10 02:38:00;;;;;;;21.67;12.98;;;1.30;99.90;;;;;;7568543;19;20297;-78
2023/04/10 02:40:34;;;;;;;24.63;12.60;;;1.40;99.90;;;;;;7587694;19;20367;-77
2023/04/10 02:43:17;;;;;;;23.70;13.00;;;1.30;99.90;;;;;;7562657;19;20325;-76
2023/04/10 02:45:51;;;;;;;23.58;12.68;;;1.30;99.90;;;;;;7567875;19;20015;-76
2023/04/10 02:48:29;;;;;;;20.88;11.90;;;1.20;99.90;;;;;;7562106;19;20018;-76
2023/04/10 02:51:06;;;;;;;23.85;13.00;;;1.10;99.90;;;;;;7569198;19;20021;-77
2023/04/10 02:53:39;;;;;;;24.35;12.80;;;1.10;99.90;;;;;;7582688;19;20201;-76
2023/04/10 02:56:11;;;;;;;24.00;12.80;;;1.00;99.90;;;;;;7578035;19;20160;-76
2023/04/10 02:58:45;;;;;;;23.30;12.00;;;1.00;99.90;;;;;;7579999;19;20134;-76
2023/04/10 03:01:18;;;;;;;24.50;11.38;;;1.10;99.90;;;;;;7583950;19;20018;-77
2023/04/10 03:03:52;;;;;;;24.20;13.13;;;1.10;99.90;;;;;;7567720;19;21940;-76
2023/04/10 03:06:30;;;;;;;25.05;11.50;;;1.00;99.90;;;;;;7570835;19;20015;-76
2023/04/10 03:09:03;;;;;;;23.80;12.13;;;1.00;99.90;;;;;;7568263;19;20010;-76
2023/04/10 03:11:37;;;;;;;23.90;12.77;;;1.00;99.90;;;;;;7569008;19;20048;-76
2023/04/10 03:14:09;;;;;;;23.42;12.50;;;1.00;99.90;;;;;;7574237;19;20108;-76
2023/04/10 03:16:41;;;;;;;21.63;11.90;;;1.00;99.90;;;;;;7589351;19;20056;-76
2023/04/10 03:19:13;;;;;;;23.10;12.00;;;1.00;99.90;;;;;;7563365;19;20027;-76
2023/04/10 03:21:46;;;;;;;23.42;12.57;;;1.00;99.90;;;;;;7584044;19;20945;-76
2023/04/10 03:24:18;;;;;;;22.58;11.95;;;1.00;99.90;;;;;;7568375;19;20018;-76
2023/04/10 03:26:50;;;;;;;23.75;12.02;;;1.00;99.90;;;;;;7567224;19;20056;-76
2023/04/10 03:29:23;;;;;;;23.33;12.40;;;1.00;99.90;;;;;;7601690;19;20643;-77
2023/04/10 03:31:56;;;;;;;22.75;12.52;;;0.90;99.90;;;;;;7595920;19;20468;-77
2023/04/10 03:34:29;;;;;;;26.45;13.10;;;0.90;99.90;;;;;;7579881;19;20010;-77
2023/04/10 03:37:02;;;;;;;24.52;13.07;;;0.80;99.90;;;;;;7596136;19;20031;-76
2023/04/10 03:39:36;;;;;;;23.47;13.20;;;0.70;99.90;;;;;;7570402;19;20018;-76
2023/04/10 03:42:08;;;;;;;24.50;12.95;;;0.70;99.90;;;;;;7570753;19;25218;-76
2023/04/10 03:44:41;;;;;;;27.40;13.27;;;0.70;99.90;;;;;;7592246;19;20074;-76
2023/04/10 03:47:14;;;;;;;23.73;12.73;;;0.70;99.90;;;;;;7592074;19;20015;-76
2023/04/10 03:49:52;;;;;;;21.98;11.73;;;0.70;99.90;;;;;;7592340;19;21047;-76
2023/04/10 03:52:27;;;;;;;22.77;12.10;;;0.80;99.90;;;;;;7558545;19;20541;-77
2023/04/10 03:55:00;;;;;;;23.55;12.35;;;0.80;99.90;;;;;;7559947;19;20613;-75
2023/04/10 03:57:32;;;;;;;22.73;12.15;;;0.80;99.90;;;;;;7556278;19;20113;-75
2023/04/10 04:00:08;;;;;;;24.90;13.38;;;0.80;99.90;;;;;;7577831;19;20014;-77
2023/04/10 04:02:52;;;;;;;26.52;13.25;;;0.70;99.90;;;;;;7587146;19;20082;-76
2023/04/10 04:05:43;;;;;;;24.80;13.05;;;0.70;99.90;;;;;;7552737;19;20038;-76
2023/04/10 04:08:35;;;;;;;21.27;12.65;;;0.70;99.90;;;;;;7577801;19;20014;-76
2023/04/10 04:11:16;;;;;;;22.40;12.77;;;0.70;99.90;;;;;;7571234;19;20023;-75
2023/04/10 04:14:03;;;;;;;25.50;13.20;;;0.60;99.90;;;;;;7584718;19;20374;-76
2023/04/10 04:16:56;;;;;;;25.55;12.75;;;0.60;99.90;;;;;;7585622;19;20106;-76
2023/04/10 04:19:28;;;;;;;27.73;13.20;;;0.70;99.90;;;;;;7596185;19;20129;-76
2023/04/10 04:22:20;;;;;;;23.10;12.30;;;0.60;99.90;;;;;;7570075;19;20022;-77
2023/04/10 04:25:11;;;;;;;24.58;13.52;;;0.70;99.90;;;;;;7575446;19;20098;-76
2023/04/10 04:28:03;;;;;;;25.10;13.73;;;0.70;99.90;;;;;;7576129;19;20445;-76
2023/04/10 04:30:54;;;;;;;26.52;13.90;;;0.60;99.90;;;;;;7575330;19;20276;-76
2023/04/10 04:33:45;;;;;;;30.23;14.93;;;0.60;99.90;;;;;;7561110;19;20022;-76
2023/04/10 04:36:30;;;;;;;26.02;13.88;;;0.60;99.90;;;;;;7594961;19;20077;-76
2023/04/10 04:39:15;;;;;;;28.20;15.07;;;0.60;99.90;;;;;;7586812;19;20050;-76
2023/04/10 04:41:58;;;;;;;31.50;14.77;;;0.60;99.90;;;;;;7559004;19;20369;-76
2023/04/10 04:44:50;;;;;;;31.52;15.82;;;0.60;99.90;;;;;;7591974;19;20292;-76
2023/04/10 04:47:39;;;;;;;27.85;15.00;;;0.60;99.90;;;;;;7581078;19;20048;-75
2023/04/10 04:50:21;;;;;;;28.77;14.90;;;0.70;99.90;;;;;;7560521;19;20011;-76
2023/04/10 04:53:16;;;;;;;29.35;14.57;;;0.80;99.90;;;;;;7589108;19;20637;-77
2023/04/10 04:56:17;;;;;;;32.85;15.55;;;0.90;99.90;;;;;;7558281;19;20014;-77
2023/04/10 04:59:02;;;;;;;31.63;16.25;;;1.00;99.90;;;;;;7576497;19;20017;-75
2023/04/10 05:01:58;;;;;;;31.08;15.40;;;1.10;99.90;;;;;;7572056;19;20696;-76
2023/04/10 05:04:45;;;;;;;35.35;17.02;;;1.10;99.90;;;;;;7575067;19;20019;-77
2023/04/10 05:07:43;;;;;;;41.13;19.17;;;1.00;99.90;;;;;;7526076;19;20078;-75
2023/04/10 05:10:33;;;;;;;38.72;18.50;;;1.00;99.90;;;;;;7589021;19;20035;-76
2023/04/10 05:13:31;;;;;;;38.40;19.70;;;1.00;99.90;;;;;;7574751;19;20021;-76
2023/04/10 05:16:24;;;;;;;34.92;18.05;;;1.00;99.90;;;;;;7588288;19;20022;-77
2023/04/10 05:19:00;;;;;;;40.13;18.38;;;1.00;99.90;;;;;;7592759;19;20118;-77
2023/04/10 05:21:56;;;;;;;46.42;20.83;;;1.10;99.90;;;;;;7561188;19;20011;-77
2023/04/10 05:24:47;;;;;;;40.08;20.13;;;1.10;99.90;;;;;;7594904;19;20088;-76
2023/04/10 05:27:29;;;;;;;34.15;17.08;;;1.10;99.90;;;;;;7553142;19;20123;-76
2023/04/10 05:30:29;;;;;;;31.58;16.60;;;1.30;99.90;;;;;;7589954;19;20022;-77
2023/04/10 05:33:14;;;;;;;34.35;16.98;;;1.50;99.90;;;;;;7603684;19;20010;-76
2023/04/10 05:36:06;;;;;;;33.60;17.20;;;1.60;99.90;;;;;;7576590;19;20041;-76
2023/04/10 05:38:55;;;;;;;31.45;16.17;;;1.60;99.90;;;;;;7592690;19;20025;-76
2023/04/10 05:41:51;;;;;;;29.48;15.70;;;1.60;99.90;;;;;;7573405;19;20015;-76
2023/04/10 05:44:36;;;;;;;32.47;16.67;;;1.60;99.90;;;;;;7592786;19;20014;-77
2023/04/10 05:47:13;;;;;;;35.42;17.15;;;1.70;99.90;;;;;;7579618;19;20026;-77
2023/04/10 05:50:04;;;;;;;32.05;16.20;;;1.70;99.90;;;;;;7580098;19;20454;-76
2023/04/10 05:52:57;;;;;;;30.80;15.63;;;1.80;99.90;;;;;;7598900;19;20010;-77
2023/04/10 05:55:59;;;;;;;27.90;15.32;;;1.90;99.90;;;;;;7596762;19;20010;-76
2023/04/10 05:59:06;;;;;;;30.48;16.02;;;2.00;99.90;;;;;;7584357;19;20010;-76
2023/04/10 06:01:57;;;;;;;30.75;15.65;;;2.10;99.90;;;;;;7598942;19;20383;-76
2023/04/10 06:04:30;;;;;;;27.23;15.23;;;2.20;99.90;;;;;;7578317;19;20747;-77
2023/04/10 06:07:04;;;;;;;26.88;15.07;;;2.30;99.90;;;;;;7589129;19;20068;-75
2023/04/10 06:09:37;;;;;;;30.30;15.38;;;2.40;99.90;;;;;;7592234;19;20403;-76
2023/04/10 06:12:11;;;;;;;30.35;14.65;;;2.50;99.90;;;;;;7556190;19;20022;-76
2023/04/10 06:14:45;;;;;;;30.08;14.75;;;2.60;99.90;;;;;;7586827;19;20050;-76
2023/04/10 06:17:20;;;;;;;29.90;14.60;;;2.80;99.90;;;;;;7569750;19;20086;-76
2023/04/10 06:19:52;;;;;;;27.88;14.52;;;3.00;99.90;;;;;;7598841;19;20270;-76
2023/04/10 06:22:25;;;;;;;23.98;14.10;;;3.10;99.90;;;;;;7586738;19;20020;-77
2023/04/10 06:24:57;;;;;;;28.23;15.60;;;3.30;99.90;;;;;;7597798;19;20019;-76
2023/04/10 06:27:30;;;;;;;27.05;14.82;;;3.40;99.90;;;;;;7563950;19;20014;-77
2023/04/10 06:30:03;;;;;;;29.40;14.73;;;3.60;99.90;;;;;;7569173;19;20715;-76
2023/04/10 06:32:35;;;;;;;27.38;14.73;;;3.70;99.90;;;;;;7547624;19;20653;-77
2023/04/10 06:35:08;;;;;;;24.38;13.77;;;3.90;99.90;;;;;;7563271;19;20018;-76
2023/04/10 06:37:41;;;;;;;28.63;15.43;;;4.00;99.90;;;;;;7585618;19;20024;-77
2023/04/10 06:40:15;;;;;;;29.83;16.20;;;4.10;99.90;;;;;;7537195;19;20600;-77
2023/04/10 06:42:47;;;;;;;29.27;15.40;;;4.30;99.90;;;;;;7561518;19;20413;-77
2023/04/10 06:45:31;;;;;;;24.95;13.55;;;4.50;99.90;;;;;;7555354;19;20966;-77
2023/04/10 06:48:05;;;;;;;28.35;15.55;;;4.70;99.90;;;;;;7544548;19;20026;-76
2023/04/10 06:50:38;;;;;;;27.83;14.75;;;4.80;99.90;;;;;;7547721;19;20021;-77
2023/04/10 06:53:10;;;;;;;25.55;14.00;;;5.00;99.90;;;;;;7534432;19;20037;-76
2023/04/10 06:55:42;;;;;;;25.50;14.13;;;5.20;99.90;;;;;;7537433;19;21058;-77
2023/04/10 06:58:15;;;;;;;22.65;12.63;;;5.30;99.90;;;;;;7575024;19;20021;-77
2023/04/10 07:00:47;;;;;;;20.97;13.00;;;5.50;99.90;;;;;;7574321;19;20041;-77
2023/04/10 07:03:20;;;;;;;22.20;13.25;;;5.60;99.90;;;;;;7551629;19;20026;-77
2023/04/10 07:05:52;;;;;;;22.10;12.07;;;5.70;99.90;;;;;;7525360;19;20376;-77
2023/04/10 07:08:25;;;;;;;21.38;12.60;;;5.90;99.90;;;;;;7551670;19;20985;-78
2023/04/10 07:10:57;;;;;;;20.05;12.57;;;6.10;99.90;;;;;;7555073;19;20014;-77
2023/04/10 07:13:29;;;;;;;18.45;11.63;;;6.30;99.90;;;;;;7540022;19;21684;-77
2023/04/10 07:16:02;;;;;;;21.73;12.25;;;6.50;99.90;;;;;;7555623;19;20056;-77
2023/04/10 07:18:37;;;;;;;19.05;11.25;;;6.50;99.90;;;;;;7567132;19;20015;-77
2023/04/10 07:21:13;;;;;;;16.45;10.82;;;6.60;99.90;;;;;;7562589;19;20018;-77
2023/04/10 07:23:45;;;;;;;17.48;10.77;;;6.80;99.90;;;;;;7559306;19;20021;-77
2023/04/10 07:26:17;;;;;;;17.65;10.77;;;7.10;99.90;;;;;;7586560;19;20025;-77
2023/04/10 07:28:49;;;;;;;17.27;10.43;;;7.20;99.90;;;;;;7576235;19;20022;-77
2023/04/10 07:31:22;;;;;;;15.93;9.45;;;7.30;99.90;;;;;;7564224;19;20019;-77
2023/04/10 07:33:55;;;;;;;23.95;10.05;;;7.40;99.60;;;;;;7531372;19;20093;-76
2023/04/10 07:36:27;;;;;;;16.00;9.45;;;7.50;97.60;;;;;;7531523;19;20014;-77
2023/04/10 07:38:59;;;;;;;16.65;10.32;;;7.60;98.50;;;;;;7524330;19;20394;-77
2023/04/10 07:41:32;;;;;;;14.25;9.30;;;7.80;98.10;;;;;;7562112;19;20065;-77
2023/04/10 07:44:05;;;;;;;13.20;8.75;;;8.00;96.70;;;;;;7563240;19;20024;-77
2023/04/10 07:46:37;;;;;;;14.40;9.30;;;8.10;95.10;;;;;;7548857;19;20026;-77
2023/04/10 07:49:09;;;;;;;14.20;9.23;;;8.20;94.30;;;;;;7565819;19;20022;-76
2023/04/10 07:51:42;;;;;;;13.73;9.00;;;8.20;93.20;;;;;;7577574;19;20030;-76
2023/04/10 07:54:14;;;;;;;16.20;9.52;;;8.30;92.80;;;;;;7564002;19;20279;-77
2023/04/10 07:56:46;;;;;;;13.88;9.45;;;8.40;92.00;;;;;;7560638;19;20625;-77
2023/04/10 07:59:19;;;;;;;15.07;9.27;;;8.40;91.60;;;;;;7529146;19;20018;-76
2023/04/10 08:01:51;;;;;;;14.38;9.57;;;8.50;92.40;;;;;;7552170;19;21042;-77
2023/04/10 08:04:25;;;;;;;15.18;9.45;;;8.70;91.90;;;;;;7552908;19;20024;-77
2023/04/10 08:06:57;;;;;;;15.43;9.25;;;8.70;90.80;;;;;;7515370;19;20011;-75
2023/04/10 08:09:30;;;;;;;13.45;8.75;;;8.80;89.50;;;;;;7542476;19;22064;-75
2023/04/10 08:12:02;;;;;;;13.75;8.90;;;8.80;87.10;;;;;;7498708;19;20025;-74
2023/04/10 08:14:35;;;;;;;12.98;8.45;;;8.70;87.80;;;;;;7552134;19;20014;-75
2023/04/10 08:17:13;;;;;;;14.85;8.98;;;8.80;87.50;;;;;;7589269;19;20375;-74
2023/04/10 08:19:45;;;;;;;14.45;8.43;;;8.90;86.60;;;;;;7555193;19;20046;-74
2023/04/10 08:22:18;;;;;;;14.98;9.73;;;8.90;86.50;;;;;;7557995;19;20089;-75
2023/04/10 08:24:51;;;;;;;15.43;9.93;;;9.00;86.30;;;;;;7511210;19;20022;-78
2023/04/10 08:27:24;;;;;;;14.88;8.98;;;9.00;86.30;;;;;;7516874;19;20025;-76
2023/04/10 08:29:56;;;;;;;13.00;8.27;;;9.10;86.30;;;;;;7488083;19;20014;-76
2023/04/10 08:32:29;;;;;;;12.15;8.55;;;9.20;85.60;;;;;;7503201;19;20073;-77
2023/04/10 08:35:01;;;;;;;12.75;8.57;;;9.20;83.10;;;;;;7541177;19;20806;-77
2023/04/10 08:37:33;;;;;;;12.05;7.60;;;9.20;83.20;;;;;;7524619;19;20014;-76
2023/04/10 08:40:06;;;;;;;13.80;8.70;;;9.20;80.30;;;;;;7536418;19;20018;-76
2023/04/10 08:42:39;;;;;;;13.02;8.18;;;9.20;81.20;;;;;;7537609;19;20061;-74
2023/04/10 08:45:12;;;;;;;11.82;7.97;;;9.30;81.50;;;;;;7513171;19;20017;-77
2023/04/10 08:47:46;;;;;;;13.30;8.93;;;9.20;80.50;;;;;;7553695;19;20588;-76
2023/04/10 08:50:20;;;;;;;15.23;9.10;;;9.30;79.60;;;;;;7541029;19;20098;-76
2023/04/10 08:52:55;;;;;;;12.25;8.48;;;9.40;79.40;;;;;;7516363;19;20026;-77
2023/04/10 08:55:27;;;;;;;13.73;8.88;;;9.40;79.40;;;;;;7529274;19;20015;-77
2023/04/10 08:58:00;;;;;;;12.75;8.05;;;9.50;80.20;;;;;;7490849;19;20030;-77
2023/04/10 09:00:34;;;;;;;12.95;8.02;;;9.60;81.20;;;;;;7517659;19;20011;-77
2023/04/10 09:03:13;;;;;;;;;;;9.60;77.30;;;;;;7543740;19;20030;-77
2023/04/10 09:05:46;;;;;;;13.85;8.48;;;9.70;77.90;;;;;;7544925;19;19918;-76
2023/04/10 09:08:18;;;;;;;12.35;8.05;;;9.70;77.90;;;;;;7531739;19;20014;-76
2023/04/10 09:10:51;;;;;;;10.55;6.90;;;9.70;77.20;;;;;;7516907;19;20640;-77
2023/04/10 09:13:53;;;;;;;14.43;9.15;;;9.70;76.00;;;;;;7481063;19;20022;-78
2023/04/10 09:16:29;;;;;;;11.52;7.35;;;9.80;76.60;;;;;;7575831;19;20616;-76
2023/04/10 09:19:01;;;;;;;10.98;7.20;;;9.80;75.00;;;;;;7563027;19;20117;-77
2023/04/10 09:21:36;;;;;;;9.95;7.15;;;9.90;76.10;;;;;;7570119;19;20791;-77
2023/04/10 09:24:08;;;;;;;11.23;7.13;;;10.00;73.70;;;;;;7576810;19;20023;-77
2023/04/10 09:26:41;;;;;;;10.98;7.15;;;10.00;73.80;;;;;;7530700;19;20014;-76
2023/04/10 09:29:15;;;;;;;10.23;6.78;;;10.00;74.20;;;;;;7558710;19;20019;-78
2023/04/10 09:31:49;;;;;;;9.02;6.22;;;10.10;74.20;;;;;;7558042;19;20017;-77
2023/04/10 09:34:22;;;;;;;9.68;6.15;;;10.20;73.20;;;;;;7570721;19;20625;-78
2023/04/10 09:36:58;;;;;;;9.57;6.18;;;10.30;72.30;;;;;;7566519;19;20018;-78
2023/04/10 09:39:39;;;;;;;9.00;6.68;;;10.30;71.20;;;;;;7534237;19;20025;-77
2023/04/10 09:42:13;;;;;;;10.63;7.18;;;10.40;71.90;;;;;;7564618;19;20045;-78
2023/04/10 09:44:46;;;;;;;;;;;10.40;71.60;;;;;;7565077;19;20471;-78
2023/04/10 09:47:20;;;;;;;8.10;5.82;;;10.50;71.30;;;;;;7561531;19;20586;-77
2023/04/10 09:49:54;;;;;;;8.80;5.85;;;10.60;70.50;;;;;;7551286;19;20050;-78
2023/04/10 09:52:32;;;;;;;10.23;5.75;;;10.70;70.70;;;;;;7569292;19;20026;-78
2023/04/10 09:55:07;;;;;;;10.25;6.47;;;10.70;68.70;;;;;;7581109;19;20021;-77
2023/04/10 09:57:39;;;;;;;9.57;6.78;;;10.80;69.20;;;;;;7567707;19;20033;-78
2023/04/10 10:00:13;;;;;;;11.57;7.63;;;10.90;70.40;;;;;;7579494;19;20014;-78
2023/04/10 10:02:47;;;;;;;;;;;10.90;69.30;;;;;;7571469;19;20022;-78
2023/04/10 10:05:21;;;;;;;9.00;6.53;;;11.00;70.40;;;;;;7553366;19;19915;-78
2023/04/10 10:07:54;;;;;;;8.98;6.32;;;11.10;69.90;;;;;;7596752;19;20017;-77
2023/04/10 10:10:26;;;;;;;10.50;6.47;;;11.30;69.30;;;;;;7572613;19;20022;-79
2023/04/10 10:13:01;;;;;;;9.82;6.60;;;11.20;68.00;;;;;;7551210;19;20026;-78
2023/04/10 10:15:49;;;;;;;8.85;6.00;;;11.30;68.40;;;;;;7583398;19;20019;-78
2023/04/10 10:18:29;;;;;;;8.70;5.43;;;11.20;65.90;;;;;;7559578;19;20101;-79
2023/04/10 10:21:03;;;;;;;8.23;5.53;;;11.40;64.90;;;;;;7580935;19;20549;-79
2023/04/10 10:23:37;;;;;;;8.00;5.60;;;11.60;65.70;;;;;;7588621;19;20018;-75
2023/04/10 10:26:10;;;;;;;14.52;5.53;;;11.60;61.70;;;;;;7560985;19;20029;-75
2023/04/10 10:28:43;;;;;;;8.03;5.40;;;11.70;61.10;;;;;;7567858;19;20018;-75
2023/04/10 10:31:17;;;;;;;8.95;5.68;;;11.70;61.90;;;;;;7573485;19;21911;-75
2023/04/10 10:33:51;;;;;;;8.02;5.47;;;11.80;62.90;;;;;;7566547;19;20091;-74
2023/04/10 10:36:24;;;;;;;7.60;5.45;;;11.90;61.90;;;;;;7569955;19;20006;-74
2023/04/10 10:39:21;;;;;;;7.70;5.28;;;11.90;61.10;;;;;;7592060;19;20094;-75
2023/04/10 10:42:12;;;;;;;6.65;4.65;;;12.00;58.60;;;;;;7565755;19;20639;-74
2023/04/10 10:45:02;;;;;;;8.02;5.78;;;12.00;59.40;;;;;;7583069;19;20093;-74
2023/04/10 10:47:42;;;;;;;7.57;5.45;;;12.00;59.80;;;;;;7570018;19;20671;-75
2023/04/10 10:50:14;;;;;;;10.65;7.00;;;12.10;60.00;;;;;;7554632;19;20023;-73
2023/04/10 10:52:48;;;;;;;7.43;4.63;;;12.20;59.80;;;;;;7574388;19;20006;-74
2023/04/10 10:55:24;;;;;;;9.13;5.68;;;12.30;60.10;;;;;;7582513;19;20002;-74
2023/04/10 10:58:00;;;;;;;8.13;5.90;;;12.40;60.50;;;;;;7583931;19;20014;-75
2023/04/10 11:00:50;;;;;;;8.93;5.75;;;12.40;58.00;;;;;;7592443;19;20018;-75
2023/04/10 11:03:22;;;;;;;8.25;5.63;;;12.60;59.00;;;;;;7560381;19;21031;-73
2023/04/10 11:05:57;;;;;;;8.80;5.45;;;12.50;57.40;;;;;;7595166;19;20017;-74
2023/04/10 11:08:34;;;;;;;6.85;4.75;;;12.50;57.70;;;;;;7574404;19;20331;-73
2023/04/10 11:11:14;;;;;;;7.55;4.50;;;12.70;58.00;;;;;;7580037;19;20015;-76
2023/04/10 11:13:56;;;;;;;6.97;4.93;;;13.00;55.00;;;;;;7577318;19;20082;-74
2023/04/10 11:16:39;;;;;;;7.97;5.60;;;13.40;56.50;;;;;;7577141;19;20030;-74
2023/04/10 11:19:19;;;;;;;7.13;5.53;;;13.60;58.80;;;;;;7593497;19;20019;-75
2023/04/10 11:22:07;;;;;;;6.55;5.18;;;14.10;57.90;;;;;;7570359;19;20905;-74
2023/04/10 11:24:56;;;;;;;8.13;6.03;;;14.30;53.20;;;;;;7567370;19;20093;-73
2023/04/10 11:27:40;;;;;;;8.68;5.72;;;14.50;54.10;;;;;;7583635;19;20030;-74
2023/04/10 11:30:28;;;;;;;7.40;5.40;;;14.50;54.10;;;;;;7590920;19;20026;-74
2023/04/10 11:33:02;;;;;;;7.15;4.93;;;14.90;52.90;;;;;;7575219;19;20059;-73
2023/04/10 11:35:35;;;;;;;7.00;4.93;;;15.10;51.90;;;;;;7587185;19;20138;-74
2023/04/10 11:38:17;;;;;;;6.32;4.90;;;15.50;52.00;;;;;;7580848;19;20011;-73
2023/04/10 11:40:57;;;;;;;5.97;4.75;;;15.70;52.20;;;;;;7581189;19;20690;-75
2023/04/10 11:43:31;;;;;;;6.95;5.18;;;15.80;50.50;;;;;;7567917;19;20022;-74
2023/04/10 11:46:06;;;;;;;6.35;4.65;;;15.90;51.90;;;;;;7585226;19;20669;-73
2023/04/10 11:48:39;;;;;;;8.55;5.97;;;16.10;48.40;;;;;;7586927;19;20018;-72
2023/04/10 11:51:13;;;;;;;7.07;5.68;;;16.10;49.00;;;;;;7587306;19;20032;-74
2023/04/10 11:53:45;;;;;;;6.88;5.40;;;16.30;48.60;;;;;;7566057;19;20017;-72
2023/04/10 11:56:20;;;;;;;5.80;4.88;;;16.30;48.50;;;;;;7584911;19;20018;-73
2023/04/10 11:58:53;;;;;;;6.60;5.07;;;16.40;49.40;;;;;;7585922;19;20018;-74
2023/04/10 12:01:26;;;;;;;6.97;5.43;;;16.60;49.60;;;;;;7589534;19;20865;-73
2023/04/10 12:03:59;;;;;;;6.10;4.70;;;16.90;47.30;;;;;;7585477;19;20022;-77
2023/04/10 12:06:33;;;;;;;6.93;4.60;;;17.30;47.30;;;;;;7590018;19;20047;-75
2023/04/10 12:09:16;;;;;;;6.07;4.50;;;17.30;48.10;;;;;;7591335;19;21261;-72
2023/04/10 12:11:55;;;;;;;7.22;5.00;;;17.20;46.80;;;;;;7582291;19;20035;-72
2023/04/10 12:14:35;;;;;;;6.40;5.10;;;17.10;47.20;;;;;;7580958;19;20077;-73
2023/04/10 12:17:10;;;;;;;5.68;4.40;;;17.20;46.30;;;;;;7590730;19;20022;-72
2023/04/10 12:19:42;;;;;;;6.10;4.70;;;17.50;45.50;;;;;;7591880;19;20019;-74
2023/04/10 12:22:15;;;;;;;16.95;11.77;;;17.70;46.20;;;;;;7581780;19;20054;-72
2023/04/10 12:24:52;;;;;;;6.45;4.55;;;18.00;46.30;;;;;;7564502;19;20018;-73
2023/04/10 12:27:26;;;;;;;5.82;4.82;;;18.20;45.60;;;;;;7582614;19;21482;-72
2023/04/10 12:29:59;;;;;;;6.00;4.75;;;17.80;44.40;;;;;;7591460;19;20319;-76
2023/04/10 12:32:31;;;;;;;6.23;4.90;;;18.00;45.70;;;;;;7584922;19;20021;-75
2023/04/10 12:35:04;;;;;;;4.93;4.28;;;18.40;45.30;;;;;;7596495;19;20278;-74
2023/04/10 12:37:46;;;;;;;6.50;4.95;;;18.60;45.00;;;;;;7592778;19;20026;-72
2023/04/10 12:40:19;;;;;;;5.25;4.22;;;18.80;43.80;;;;;;7577824;19;20029;-75
2023/04/10 12:42:51;;;;;;;5.75;4.30;;;18.70;44.70;;;;;;7576419;19;21009;-74
2023/04/10 12:45:44;;;;;;;6.47;5.17;;;18.60;43.40;;;;;;7593541;19;20482;-74
2023/04/10 12:48:23;;;;;;;6.70;5.15;;;18.90;43.50;;;;;;7585082;19;20022;-74
2023/04/10 12:50:56;;;;;;;4.78;4.10;;;19.20;43.90;;;;;;7592014;19;20098;-73
2023/04/10 12:53:28;;;;;;;5.68;4.38;;;19.30;43.40;;;;;;7576932;19;20548;-73
2023/04/10 12:56:03;;;;;;;4.75;3.95;;;19.40;42.50;;;;;;7548819;19;20022;-74
2023/04/10 12:58:35;;;;;;;4.88;3.90;;;19.30;42.10;;;;;;7569860;19;20018;-74
2023/04/10 13:01:08;;;;;;;4.65;3.90;;;19.10;43.00;;;;;;7589862;19;20034;-73
2023/04/10 13:03:40;;;;;;;4.67;4.17;;;19.30;43.90;;;;;;7590329;19;20886;-74
2023/04/10 13:06:13;;;;;;;5.10;4.07;;;19.40;42.90;;;;;;7579693;19;20035;-74
2023/04/10 13:08:45;;;;;;;7.07;4.72;;;19.40;40.60;;;;;;7595492;19;20026;-74
2023/04/10 13:11:18;;;;;;;5.80;4.70;;;19.10;42.80;;;;;;7566234;19;20018;-73
2023/04/10 13:13:51;;;;;;;5.22;4.35;;;19.10;43.50;;;;;;7573428;19;20018;-74
2023/04/10 13:16:23;;;;;;;5.68;4.47;;;19.50;43.90;;;;;;7573152;19;20115;-73
2023/04/10 13:18:56;;;;;;;5.65;4.57;;;19.90;42.70;;;;;;7576929;19;20022;-72
2023/04/10 13:21:29;;;;;;;5.90;5.30;;;19.90;43.10;;;;;;7572503;19;20022;-72
2023/04/10 13:24:01;;;;;;;5.50;4.50;;;19.80;42.70;;;;;;7562239;19;20018;-75
2023/04/10 13:26:33;;;;;;;5.70;4.53;;;19.60;43.30;;;;;;7572083;19;20015;-73
2023/04/10 13:29:05;;;;;;;7.40;4.18;;;19.70;43.30;;;;;;7575781;19;20015;-74
2023/04/10 13:31:38;;;;;;;5.32;4.43;;;19.60;43.00;;;;;;7572117;19;20019;-74
2023/04/10 13:34:10;;;;;;;5.35;4.53;;;19.40;43.30;;;;;;7564779;19;22313;-73